sensor_id;sensor_type;location;lat;lon;timestamp;P1;durP1;ratioP1;P2;durP2;ratioP2
21661;SDS011;10992;48.170;8.596;2022-11-18T00:01:14;2.42;;;1.10;;
21661;SDS011;10992;48.170;8.596;2022-11-18T00:03:45;1.95;;;1.10;;
21661;SDS011;10992;48.170;8.596;2022-11-18T00:06:13;1.90;;;1.52;;
21661;SDS011;10992;48.170;8.596;2022-11-18T00:08:44;1.75;;;1.20;;
21661;SDS011;10992;48.170;8.596;2022-11-18T00:11:12;4.40;;;1.38;;
21661;SDS011;10992;48.170;8.596;2022-11-18T00:14:00;2.40;;;1.27;;
21661;SDS011;10992;48.170;8.596;2022-11-18T00:16:46;1.52;;;1.23;;
21661;SDS011;10992;48.170;8.596;2022-11-18T00:19:22;2.65;;;1.38;;
21661;SDS011;10992;48.170;8.596;2022-11-18T00:21:50;1.52;;;1.13;;
21661;SDS011;10992;48.170;8.596;2022-11-18T00:24:17;2.80;;;1.42;;
21661;SDS011;10992;48.170;8.596;2022-11-18T00:26:45;2.35;;;1.48;;
21661;SDS011;10992;48.170;8.596;2022-11-18T00:29:12;2.88;;;1.02;;
21661;SDS011;10992;48.170;8.596;2022-11-18T00:31:40;1.80;;;1.35;;
21661;SDS011;10992;48.170;8.596;2022-11-18T00:34:09;2.33;;;1.30;;
21661;SDS011;10992;48.170;8.596;2022-11-18T00:36:38;2.60;;;1.58;;
21661;SDS011;10992;48.170;8.596;2022-11-18T00:39:05;2.42;;;1.70;;
21661;SDS011;10992;48.170;8.596;2022-11-18T00:41:32;2.30;;;1.25;;
21661;SDS011;10992;48.170;8.596;2022-11-18T00:44:18;3.63;;;3.10;;
21661;SDS011;10992;48.170;8.596;2022-11-18T00:46:45;3.72;;;2.63;;
21661;SDS011;10992;48.170;8.596;2022-11-18T00:49:12;3.88;;;2.00;;
21661;SDS011;10992;48.170;8.596;2022-11-18T00:51:39;4.63;;;3.38;;
21661;SDS011;10992;48.170;8.596;2022-11-18T00:54:06;4.55;;;3.33;;
21661;SDS011;10992;48.170;8.596;2022-11-18T00:56:33;4.03;;;3.35;;
21661;SDS011;10992;48.170;8.596;2022-11-18T00:59:00;4.60;;;3.40;;
21661;SDS011;10992;48.170;8.596;2022-11-18T01:01:26;3.70;;;2.30;;
21661;SDS011;10992;48.170;8.596;2022-11-18T01:03:53;3.28;;;2.28;;
21661;SDS011;10992;48.170;8.596;2022-11-18T01:06:20;3.58;;;2.67;;
21661;SDS011;10992;48.170;8.596;2022-11-18T01:08:48;2.75;;;2.40;;
21661;SDS011;10992;48.170;8.596;2022-11-18T01:11:15;3.17;;;2.50;;
21661;SDS011;10992;48.170;8.596;2022-11-18T01:14:00;4.22;;;2.38;;
21661;SDS011;10992;48.170;8.596;2022-11-18T01:16:27;3.10;;;2.22;;
21661;SDS011;10992;48.170;8.596;2022-11-18T01:18:56;3.35;;;2.25;;
21661;SDS011;10992;48.170;8.596;2022-11-18T01:21:23;4.10;;;2.05;;
21661;SDS011;10992;48.170;8.596;2022-11-18T01:23:50;2.35;;;1.77;;
21661;SDS011;10992;48.170;8.596;2022-11-18T01:26:17;2.22;;;1.90;;
21661;SDS011;10992;48.170;8.596;2022-11-18T01:28:44;1.52;;;1.42;;
21661;SDS011;10992;48.170;8.596;2022-11-18T01:31:12;2.00;;;1.70;;
21661;SDS011;10992;48.170;8.596;2022-11-18T01:33:41;1.48;;;1.05;;
21661;SDS011;10992;48.170;8.596;2022-11-18T01:36:19;1.10;;;0.80;;
21661;SDS011;10992;48.170;8.596;2022-11-18T01:38:47;1.60;;;1.13;;
21661;SDS011;10992;48.170;8.596;2022-11-18T01:41:15;1.88;;;1.15;;
21661;SDS011;10992;48.170;8.596;2022-11-18T01:46:13;1.42;;;1.10;;
21661;SDS011;10992;48.170;8.596;2022-11-18T01:48:41;1.05;;;0.93;;
21661;SDS011;10992;48.170;8.596;2022-11-18T01:51:11;1.98;;;1.20;;
21661;SDS011;10992;48.170;8.596;2022-11-18T01:53:44;1.10;;;0.80;;
21661;SDS011;10992;48.170;8.596;2022-11-18T01:56:18;2.05;;;0.93;;
21661;SDS011;10992;48.170;8.596;2022-11-18T01:58:51;0.50;;;0.50;;
21661;SDS011;10992;48.170;8.596;2022-11-18T02:01:23;1.20;;;0.70;;
21661;SDS011;10992;48.170;8.596;2022-11-18T02:03:50;0.85;;;0.60;;
21661;SDS011;10992;48.170;8.596;2022-11-18T02:06:19;0.93;;;0.60;;
21661;SDS011;10992;48.170;8.596;2022-11-18T02:08:46;0.88;;;0.60;;
21661;SDS011;10992;48.170;8.596;2022-11-18T02:11:14;1.25;;;0.65;;
21661;SDS011;10992;48.170;8.596;2022-11-18T02:14:03;0.50;;;0.50;;
21661;SDS011;10992;48.170;8.596;2022-11-18T02:30:33;0.40;;;0.35;;
21661;SDS011;10992;48.170;8.596;2022-11-18T02:33:10;2.15;;;0.52;;
21661;SDS011;10992;48.170;8.596;2022-11-18T02:35:46;0.30;;;0.30;;
21661;SDS011;10992;48.170;8.596;2022-11-18T02:38:30;0.60;;;0.43;;
21661;SDS011;10992;48.170;8.596;2022-11-18T02:41:05;0.60;;;0.47;;
21661;SDS011;10992;48.170;8.596;2022-11-18T02:43:37;2.00;;;0.70;;
21661;SDS011;10992;48.170;8.596;2022-11-18T02:46:09;1.88;;;0.50;;
21661;SDS011;10992;48.170;8.596;2022-11-18T02:48:42;0.95;;;0.68;;
21661;SDS011;10992;48.170;8.596;2022-11-18T02:51:13;0.88;;;0.32;;
21661;SDS011;10992;48.170;8.596;2022-11-18T02:53:43;1.55;;;0.65;;
21661;SDS011;10992;48.170;8.596;2022-11-18T02:56:13;0.98;;;0.40;;
21661;SDS011;10992;48.170;8.596;2022-11-18T02:58:41;0.30;;;0.30;;
21661;SDS011;10992;48.170;8.596;2022-11-18T03:01:24;0.55;;;0.40;;
21661;SDS011;10992;48.170;8.596;2022-11-18T03:03:54;0.32;;;0.32;;
21661;SDS011;10992;48.170;8.596;2022-11-18T03:06:32;1.20;;;0.30;;
21661;SDS011;10992;48.170;8.596;2022-11-18T03:11:46;0.90;;;0.40;;
21661;SDS011;10992;48.170;8.596;2022-11-18T03:17:29;0.85;;;0.40;;
21661;SDS011;10992;48.170;8.596;2022-11-18T03:25:22;0.43;;;0.43;;
21661;SDS011;10992;48.170;8.596;2022-11-18T03:30:32;1.83;;;0.68;;
21661;SDS011;10992;48.170;8.596;2022-11-18T03:33:14;0.77;;;0.45;;
21661;SDS011;10992;48.170;8.596;2022-11-18T03:35:46;0.30;;;0.30;;
21661;SDS011;10992;48.170;8.596;2022-11-18T03:38:16;1.20;;;0.38;;
21661;SDS011;10992;48.170;8.596;2022-11-18T03:40:49;1.27;;;0.30;;
21661;SDS011;10992;48.170;8.596;2022-11-18T03:43:24;0.20;;;0.20;;
21661;SDS011;10992;48.170;8.596;2022-11-18T03:45:59;1.10;;;0.30;;
21661;SDS011;10992;48.170;8.596;2022-11-18T03:48:30;0.57;;;0.40;;
21661;SDS011;10992;48.170;8.596;2022-11-18T03:51:08;0.98;;;0.22;;
21661;SDS011;10992;48.170;8.596;2022-11-18T03:53:40;0.20;;;0.20;;
21661;SDS011;10992;48.170;8.596;2022-11-18T03:56:12;0.20;;;0.20;;
21661;SDS011;10992;48.170;8.596;2022-11-18T03:58:47;0.20;;;0.20;;
21661;SDS011;10992;48.170;8.596;2022-11-18T04:01:35;0.20;;;0.20;;
21661;SDS011;10992;48.170;8.596;2022-11-18T04:04:12;0.73;;;0.30;;
21661;SDS011;10992;48.170;8.596;2022-11-18T04:09:35;0.28;;;0.28;;
21661;SDS011;10992;48.170;8.596;2022-11-18T04:12:09;0.25;;;0.25;;
21661;SDS011;10992;48.170;8.596;2022-11-18T04:14:40;0.50;;;0.30;;
21661;SDS011;10992;48.170;8.596;2022-11-18T04:17:13;0.30;;;0.20;;
21661;SDS011;10992;48.170;8.596;2022-11-18T04:19:41;0.20;;;0.20;;
21661;SDS011;10992;48.170;8.596;2022-11-18T04:22:09;0.20;;;0.20;;
21661;SDS011;10992;48.170;8.596;2022-11-18T04:24:36;0.28;;;0.20;;
21661;SDS011;10992;48.170;8.596;2022-11-18T04:27:03;0.22;;;0.22;;
21661;SDS011;10992;48.170;8.596;2022-11-18T04:29:30;0.30;;;0.30;;
21661;SDS011;10992;48.170;8.596;2022-11-18T04:31:58;0.73;;;0.20;;
21661;SDS011;10992;48.170;8.596;2022-11-18T04:34:26;2.85;;;0.30;;
21661;SDS011;10992;48.170;8.596;2022-11-18T04:36:53;0.28;;;0.28;;
21661;SDS011;10992;48.170;8.596;2022-11-18T04:39:20;1.45;;;0.47;;
21661;SDS011;10992;48.170;8.596;2022-11-18T04:41:47;0.40;;;0.40;;
21661;SDS011;10992;48.170;8.596;2022-11-18T04:44:27;1.67;;;0.50;;
21661;SDS011;10992;48.170;8.596;2022-11-18T04:46:55;0.40;;;0.40;;
21661;SDS011;10992;48.170;8.596;2022-11-18T04:49:24;0.30;;;0.30;;
21661;SDS011;10992;48.170;8.596;2022-11-18T04:51:51;0.40;;;0.40;;
21661;SDS011;10992;48.170;8.596;2022-11-18T04:54:18;0.38;;;0.38;;
21661;SDS011;10992;48.170;8.596;2022-11-18T04:56:46;0.30;;;0.30;;
21661;SDS011;10992;48.170;8.596;2022-11-18T04:59:16;0.52;;;0.30;;
21661;SDS011;10992;48.170;8.596;2022-11-18T05:01:46;1.27;;;0.30;;
21661;SDS011;10992;48.170;8.596;2022-11-18T05:04:14;0.30;;;0.30;;
21661;SDS011;10992;48.170;8.596;2022-11-18T05:06:43;0.80;;;0.40;;
21661;SDS011;10992;48.170;8.596;2022-11-18T05:09:10;0.35;;;0.35;;
21661;SDS011;10992;48.170;8.596;2022-11-18T05:11:37;0.30;;;0.30;;
21661;SDS011;10992;48.170;8.596;2022-11-18T05:14:27;0.32;;;0.32;;
21661;SDS011;10992;48.170;8.596;2022-11-18T05:16:55;1.67;;;0.30;;
21661;SDS011;10992;48.170;8.596;2022-11-18T05:19:23;1.15;;;0.50;;
21661;SDS011;10992;48.170;8.596;2022-11-18T05:21:49;0.80;;;0.40;;
21661;SDS011;10992;48.170;8.596;2022-11-18T05:24:16;0.43;;;0.40;;
21661;SDS011;10992;48.170;8.596;2022-11-18T05:26:43;0.40;;;0.20;;
21661;SDS011;10992;48.170;8.596;2022-11-18T05:29:10;0.50;;;0.30;;
21661;SDS011;10992;48.170;8.596;2022-11-18T05:31:38;0.30;;;0.30;;
21661;SDS011;10992;48.170;8.596;2022-11-18T05:34:05;0.50;;;0.43;;
21661;SDS011;10992;48.170;8.596;2022-11-18T05:36:32;0.55;;;0.55;;
21661;SDS011;10992;48.170;8.596;2022-11-18T05:38:59;0.40;;;0.40;;
21661;SDS011;10992;48.170;8.596;2022-11-18T05:41:26;1.17;;;0.80;;
21661;SDS011;10992;48.170;8.596;2022-11-18T05:44:25;0.80;;;0.63;;
21661;SDS011;10992;48.170;8.596;2022-11-18T05:46:52;0.43;;;0.43;;
21661;SDS011;10992;48.170;8.596;2022-11-18T05:49:19;1.40;;;0.50;;
21661;SDS011;10992;48.170;8.596;2022-11-18T05:51:46;0.68;;;0.63;;
21661;SDS011;10992;48.170;8.596;2022-11-18T05:54:13;0.93;;;0.50;;
21661;SDS011;10992;48.170;8.596;2022-11-18T05:56:42;0.45;;;0.40;;
21661;SDS011;10992;48.170;8.596;2022-11-18T05:59:12;1.60;;;0.90;;
21661;SDS011;10992;48.170;8.596;2022-11-18T06:02:22;3.30;;;1.40;;
21661;SDS011;10992;48.170;8.596;2022-11-18T06:04:54;1.70;;;1.10;;
21661;SDS011;10992;48.170;8.596;2022-11-18T06:07:39;0.80;;;0.80;;
21661;SDS011;10992;48.170;8.596;2022-11-18T06:10:12;0.60;;;0.55;;
21661;SDS011;10992;48.170;8.596;2022-11-18T06:12:45;0.57;;;0.40;;
21661;SDS011;10992;48.170;8.596;2022-11-18T06:15:25;1.80;;;0.50;;
21661;SDS011;10992;48.170;8.596;2022-11-18T06:20:27;0.70;;;0.45;;
21661;SDS011;10992;48.170;8.596;2022-11-18T06:22:55;3.25;;;0.90;;
21661;SDS011;10992;48.170;8.596;2022-11-18T06:25:23;0.80;;;0.70;;
21661;SDS011;10992;48.170;8.596;2022-11-18T06:27:50;1.00;;;0.90;;
21661;SDS011;10992;48.170;8.596;2022-11-18T06:30:19;0.90;;;0.85;;
21661;SDS011;10992;48.170;8.596;2022-11-18T06:32:46;1.00;;;0.90;;
21661;SDS011;10992;48.170;8.596;2022-11-18T06:35:12;2.88;;;0.95;;
21661;SDS011;10992;48.170;8.596;2022-11-18T06:37:39;1.10;;;0.93;;
21661;SDS011;10992;48.170;8.596;2022-11-18T06:40:06;1.38;;;1.08;;
21661;SDS011;10992;48.170;8.596;2022-11-18T06:42:34;2.05;;;1.30;;
21661;SDS011;10992;48.170;8.596;2022-11-18T06:45:19;2.40;;;1.33;;
21661;SDS011;10992;48.170;8.596;2022-11-18T06:47:46;2.72;;;1.65;;
21661;SDS011;10992;48.170;8.596;2022-11-18T06:50:13;2.15;;;1.30;;
21661;SDS011;10992;48.170;8.596;2022-11-18T06:52:40;1.45;;;1.05;;
21661;SDS011;10992;48.170;8.596;2022-11-18T06:55:07;0.98;;;0.90;;
21661;SDS011;10992;48.170;8.596;2022-11-18T06:57:34;0.85;;;0.70;;
21661;SDS011;10992;48.170;8.596;2022-11-18T07:00:01;0.60;;;0.50;;
21661;SDS011;10992;48.170;8.596;2022-11-18T07:02:28;1.05;;;0.70;;
21661;SDS011;10992;48.170;8.596;2022-11-18T07:04:55;0.77;;;0.52;;
21661;SDS011;10992;48.170;8.596;2022-11-18T07:07:22;1.17;;;0.75;;
21661;SDS011;10992;48.170;8.596;2022-11-18T07:09:49;1.38;;;0.75;;
21661;SDS011;10992;48.170;8.596;2022-11-18T07:12:16;0.60;;;0.60;;
21661;SDS011;10992;48.170;8.596;2022-11-18T07:14:43;0.98;;;0.73;;
21661;SDS011;10992;48.170;8.596;2022-11-18T07:17:10;1.38;;;0.90;;
21661;SDS011;10992;48.170;8.596;2022-11-18T07:19:37;1.30;;;1.00;;
21661;SDS011;10992;48.170;8.596;2022-11-18T07:22:05;1.45;;;1.08;;
21661;SDS011;10992;48.170;8.596;2022-11-18T07:24:33;1.27;;;0.80;;
21661;SDS011;10992;48.170;8.596;2022-11-18T07:27:00;2.45;;;0.95;;
21661;SDS011;10992;48.170;8.596;2022-11-18T07:29:27;1.50;;;1.17;;
21661;SDS011;10992;48.170;8.596;2022-11-18T07:31:53;2.05;;;1.17;;
21661;SDS011;10992;48.170;8.596;2022-11-18T07:34:20;1.83;;;1.40;;
21661;SDS011;10992;48.170;8.596;2022-11-18T07:36:47;3.00;;;1.30;;
21661;SDS011;10992;48.170;8.596;2022-11-18T07:39:16;2.22;;;1.20;;
21661;SDS011;10992;48.170;8.596;2022-11-18T07:41:44;3.75;;;1.52;;
21661;SDS011;10992;48.170;8.596;2022-11-18T07:44:11;1.35;;;1.20;;
21661;SDS011;10992;48.170;8.596;2022-11-18T07:46:38;3.97;;;1.20;;
21661;SDS011;10992;48.170;8.596;2022-11-18T07:49:06;2.55;;;0.93;;
21661;SDS011;10992;48.170;8.596;2022-11-18T07:51:35;4.10;;;1.20;;
21661;SDS011;10992;48.170;8.596;2022-11-18T07:54:10;2.65;;;0.75;;
21661;SDS011;10992;48.170;8.596;2022-11-18T07:56:39;2.63;;;1.08;;
21661;SDS011;10992;48.170;8.596;2022-11-18T07:59:06;3.63;;;1.05;;
21661;SDS011;10992;48.170;8.596;2022-11-18T08:01:33;0.90;;;0.57;;
21661;SDS011;10992;48.170;8.596;2022-11-18T08:04:04;2.58;;;0.88;;
21661;SDS011;10992;48.170;8.596;2022-11-18T08:06:33;0.77;;;0.50;;
21661;SDS011;10992;48.170;8.596;2022-11-18T08:09:00;2.75;;;0.50;;
21661;SDS011;10992;48.170;8.596;2022-11-18T08:11:28;5.75;;;0.80;;
21661;SDS011;10992;48.170;8.596;2022-11-18T08:13:55;1.48;;;0.50;;
21661;SDS011;10992;48.170;8.596;2022-11-18T08:16:23;1.50;;;0.50;;
21661;SDS011;10992;48.170;8.596;2022-11-18T08:18:51;0.68;;;0.40;;
21661;SDS011;10992;48.170;8.596;2022-11-18T08:21:19;1.13;;;0.50;;
21661;SDS011;10992;48.170;8.596;2022-11-18T08:23:51;5.57;;;5.18;;
21661;SDS011;10992;48.170;8.596;2022-11-18T08:26:19;1.67;;;0.63;;
21661;SDS011;10992;48.170;8.596;2022-11-18T08:28:47;0.50;;;0.45;;
21661;SDS011;10992;48.170;8.596;2022-11-18T08:31:15;1.45;;;0.82;;
21661;SDS011;10992;48.170;8.596;2022-11-18T08:33:44;1.13;;;0.68;;
21661;SDS011;10992;48.170;8.596;2022-11-18T08:36:13;0.50;;;0.40;;
21661;SDS011;10992;48.170;8.596;2022-11-18T08:38:42;0.60;;;0.52;;
21661;SDS011;10992;48.170;8.596;2022-11-18T08:41:11;0.63;;;0.50;;
21661;SDS011;10992;48.170;8.596;2022-11-18T08:43:43;0.60;;;0.50;;
21661;SDS011;10992;48.170;8.596;2022-11-18T08:46:10;1.65;;;0.70;;
21661;SDS011;10992;48.170;8.596;2022-11-18T08:48:37;0.68;;;0.50;;
21661;SDS011;10992;48.170;8.596;2022-11-18T08:51:04;0.70;;;0.70;;
21661;SDS011;10992;48.170;8.596;2022-11-18T08:53:31;0.68;;;0.60;;
21661;SDS011;10992;48.170;8.596;2022-11-18T08:55:58;1.58;;;0.90;;
21661;SDS011;10992;48.170;8.596;2022-11-18T08:58:26;0.60;;;0.30;;
21661;SDS011;10992;48.170;8.596;2022-11-18T09:00:53;1.15;;;0.70;;
21661;SDS011;10992;48.170;8.596;2022-11-18T09:03:20;0.85;;;0.60;;
21661;SDS011;10992;48.170;8.596;2022-11-18T09:05:48;0.60;;;0.60;;
21661;SDS011;10992;48.170;8.596;2022-11-18T09:08:15;3.90;;;1.02;;
21661;SDS011;10992;48.170;8.596;2022-11-18T09:10:42;1.42;;;0.90;;
21661;SDS011;10992;48.170;8.596;2022-11-18T09:13:09;1.48;;;1.15;;
21661;SDS011;10992;48.170;8.596;2022-11-18T09:15:59;2.08;;;1.38;;
21661;SDS011;10992;48.170;8.596;2022-11-18T09:18:27;2.58;;;1.20;;
21661;SDS011;10992;48.170;8.596;2022-11-18T09:21:01;2.03;;;0.93;;
21661;SDS011;10992;48.170;8.596;2022-11-18T09:23:29;2.97;;;1.00;;
21661;SDS011;10992;48.170;8.596;2022-11-18T09:25:58;7.88;;;1.60;;
21661;SDS011;10992;48.170;8.596;2022-11-18T09:28:35;3.50;;;1.77;;
21661;SDS011;10992;48.170;8.596;2022-11-18T09:31:06;5.03;;;1.58;;
21661;SDS011;10992;48.170;8.596;2022-11-18T09:33:35;10.07;;;2.55;;
21661;SDS011;10992;48.170;8.596;2022-11-18T09:36:03;2.55;;;1.33;;
21661;SDS011;10992;48.170;8.596;2022-11-18T09:38:36;2.00;;;1.70;;
21661;SDS011;10992;48.170;8.596;2022-11-18T09:41:04;5.07;;;2.03;;
21661;SDS011;10992;48.170;8.596;2022-11-18T09:49:35;2.67;;;1.42;;
21661;SDS011;10992;48.170;8.596;2022-11-18T09:52:05;2.40;;;1.60;;
21661;SDS011;10992;48.170;8.596;2022-11-18T09:54:42;4.47;;;2.88;;
21661;SDS011;10992;48.170;8.596;2022-11-18T09:57:12;2.17;;;1.40;;
21661;SDS011;10992;48.170;8.596;2022-11-18T09:59:44;2.13;;;1.20;;
21661;SDS011;10992;48.170;8.596;2022-11-18T10:04:39;4.82;;;2.45;;
21661;SDS011;10992;48.170;8.596;2022-11-18T10:07:12;2.40;;;1.27;;
21661;SDS011;10992;48.170;8.596;2022-11-18T10:09:44;2.17;;;1.38;;
21661;SDS011;10992;48.170;8.596;2022-11-18T10:15:13;1.10;;;0.57;;
21661;SDS011;10992;48.170;8.596;2022-11-18T10:25:54;1.42;;;0.52;;
21661;SDS011;10992;48.170;8.596;2022-11-18T10:28:25;0.47;;;0.40;;
21661;SDS011;10992;48.170;8.596;2022-11-18T10:31:03;2.08;;;1.30;;
21661;SDS011;10992;48.170;8.596;2022-11-18T10:33:33;0.85;;;0.85;;
21661;SDS011;10992;48.170;8.596;2022-11-18T10:36:25;1.77;;;1.05;;
21661;SDS011;10992;48.170;8.596;2022-11-18T10:39:03;1.13;;;0.85;;
21661;SDS011;10992;48.170;8.596;2022-11-18T10:41:45;0.60;;;0.50;;
21661;SDS011;10992;48.170;8.596;2022-11-18T10:44:48;1.38;;;1.08;;
21661;SDS011;10992;48.170;8.596;2022-11-18T10:47:15;0.60;;;0.50;;
21661;SDS011;10992;48.170;8.596;2022-11-18T10:49:58;0.77;;;0.50;;
21661;SDS011;10992;48.170;8.596;2022-11-18T10:52:26;0.77;;;0.60;;
21661;SDS011;10992;48.170;8.596;2022-11-18T10:57:46;0.70;;;0.50;;
21661;SDS011;10992;48.170;8.596;2022-11-18T11:00:35;1.05;;;0.82;;
21661;SDS011;10992;48.170;8.596;2022-11-18T11:03:22;1.02;;;0.70;;
21661;SDS011;10992;48.170;8.596;2022-11-18T11:06:11;0.65;;;0.65;;
21661;SDS011;10992;48.170;8.596;2022-11-18T11:08:59;0.98;;;0.50;;
21661;SDS011;10992;48.170;8.596;2022-11-18T11:11:34;1.23;;;0.50;;
21661;SDS011;10992;48.170;8.596;2022-11-18T11:14:13;1.20;;;0.63;;
21661;SDS011;10992;48.170;8.596;2022-11-18T11:16:44;0.65;;;0.55;;
21661;SDS011;10992;48.170;8.596;2022-11-18T11:19:16;0.63;;;0.30;;
21661;SDS011;10992;48.170;8.596;2022-11-18T11:21:48;0.47;;;0.40;;
21661;SDS011;10992;48.170;8.596;2022-11-18T11:24:15;0.95;;;0.70;;
21661;SDS011;10992;48.170;8.596;2022-11-18T11:30:28;1.55;;;1.17;;
21661;SDS011;10992;48.170;8.596;2022-11-18T11:36:00;2.92;;;1.60;;
21661;SDS011;10992;48.170;8.596;2022-11-18T11:46:55;3.42;;;1.40;;
21661;SDS011;10992;48.170;8.596;2022-11-18T11:49:52;2.25;;;1.63;;
21661;SDS011;10992;48.170;8.596;2022-11-18T12:04:45;1.98;;;1.25;;
21661;SDS011;10992;48.170;8.596;2022-11-18T12:09:57;4.30;;;1.40;;
21661;SDS011;10992;48.170;8.596;2022-11-18T12:15:16;2.17;;;1.55;;
21661;SDS011;10992;48.170;8.596;2022-11-18T12:20:55;0.88;;;0.80;;
21661;SDS011;10992;48.170;8.596;2022-11-18T12:23:26;2.60;;;0.80;;
21661;SDS011;10992;48.170;8.596;2022-11-18T12:31:46;2.58;;;0.77;;
21661;SDS011;10992;48.170;8.596;2022-11-18T12:34:27;1.67;;;0.88;;
21661;SDS011;10992;48.170;8.596;2022-11-18T12:37:29;1.05;;;0.80;;
21661;SDS011;10992;48.170;8.596;2022-11-18T12:39:47;1.25;;;0.43;;
21661;SDS011;10992;48.170;8.596;2022-11-18T12:50:53;1.02;;;0.50;;
21661;SDS011;10992;48.170;8.596;2022-11-18T12:55:57;1.25;;;0.63;;
21661;SDS011;10992;48.170;8.596;2022-11-18T12:58:25;1.20;;;0.75;;
21661;SDS011;10992;48.170;8.596;2022-11-18T13:01:15;2.35;;;0.82;;
21661;SDS011;10992;48.170;8.596;2022-11-18T13:03:42;5.28;;;1.40;;
21661;SDS011;10992;48.170;8.596;2022-11-18T13:08:52;1.55;;;1.00;;
21661;SDS011;10992;48.170;8.596;2022-11-18T13:11:23;1.65;;;1.17;;
21661;SDS011;10992;48.170;8.596;2022-11-18T13:14:28;3.25;;;1.30;;
21661;SDS011;10992;48.170;8.596;2022-11-18T13:20:21;3.25;;;1.40;;
21661;SDS011;10992;48.170;8.596;2022-11-18T13:23:18;3.40;;;1.23;;
21661;SDS011;10992;48.170;8.596;2022-11-18T13:34:22;0.70;;;0.50;;
21661;SDS011;10992;48.170;8.596;2022-11-18T13:36:54;1.38;;;0.43;;
21661;SDS011;10992;48.170;8.596;2022-11-18T13:39:30;5.20;;;3.03;;
21661;SDS011;10992;48.170;8.596;2022-11-18T13:42:01;2.47;;;2.08;;
21661;SDS011;10992;48.170;8.596;2022-11-18T13:44:30;1.52;;;1.20;;
21661;SDS011;10992;48.170;8.596;2022-11-18T13:49:58;1.02;;;0.90;;
21661;SDS011;10992;48.170;8.596;2022-11-18T13:52:37;1.02;;;0.90;;
21661;SDS011;10992;48.170;8.596;2022-11-18T13:55:17;2.47;;;1.63;;
21661;SDS011;10992;48.170;8.596;2022-11-18T13:57:49;1.30;;;1.00;;
21661;SDS011;10992;48.170;8.596;2022-11-18T14:00:21;2.22;;;1.23;;
21661;SDS011;10992;48.170;8.596;2022-11-18T14:02:53;2.50;;;1.85;;
21661;SDS011;10992;48.170;8.596;2022-11-18T14:05:23;3.30;;;2.17;;
21661;SDS011;10992;48.170;8.596;2022-11-18T14:07:54;3.70;;;2.80;;
21661;SDS011;10992;48.170;8.596;2022-11-18T14:10:41;3.67;;;2.30;;
21661;SDS011;10992;48.170;8.596;2022-11-18T14:13:17;4.40;;;2.10;;
21661;SDS011;10992;48.170;8.596;2022-11-18T14:15:52;3.22;;;2.30;;
21661;SDS011;10992;48.170;8.596;2022-11-18T14:18:31;3.33;;;2.28;;
21661;SDS011;10992;48.170;8.596;2022-11-18T14:21:02;3.53;;;2.50;;
21661;SDS011;10992;48.170;8.596;2022-11-18T14:23:32;2.15;;;1.55;;
21661;SDS011;10992;48.170;8.596;2022-11-18T14:26:02;2.67;;;1.70;;
21661;SDS011;10992;48.170;8.596;2022-11-18T14:28:32;2.15;;;1.50;;
21661;SDS011;10992;48.170;8.596;2022-11-18T14:31:07;4.50;;;3.83;;
21661;SDS011;10992;48.170;8.596;2022-11-18T14:36:39;5.80;;;4.40;;
21661;SDS011;10992;48.170;8.596;2022-11-18T14:39:16;6.10;;;5.60;;
21661;SDS011;10992;48.170;8.596;2022-11-18T14:41:53;2.25;;;2.05;;
21661;SDS011;10992;48.170;8.596;2022-11-18T14:44:21;3.22;;;2.92;;
21661;SDS011;10992;48.170;8.596;2022-11-18T14:46:54;3.22;;;2.92;;
21661;SDS011;10992;48.170;8.596;2022-11-18T14:49:24;3.92;;;3.53;;
21661;SDS011;10992;48.170;8.596;2022-11-18T14:51:53;6.05;;;5.45;;
21661;SDS011;10992;48.170;8.596;2022-11-18T14:54:21;3.03;;;2.67;;
21661;SDS011;10992;48.170;8.596;2022-11-18T14:56:54;6.97;;;6.28;;
21661;SDS011;10992;48.170;8.596;2022-11-18T14:59:25;8.07;;;4.60;;
21661;SDS011;10992;48.170;8.596;2022-11-18T15:01:53;5.68;;;3.90;;
21661;SDS011;10992;48.170;8.596;2022-11-18T15:04:22;8.45;;;5.47;;
21661;SDS011;10992;48.170;8.596;2022-11-18T15:06:50;5.20;;;3.38;;
21661;SDS011;10992;48.170;8.596;2022-11-18T15:09:17;5.60;;;3.25;;
21661;SDS011;10992;48.170;8.596;2022-11-18T15:11:44;5.57;;;2.70;;
21661;SDS011;10992;48.170;8.596;2022-11-18T15:14:11;3.95;;;3.10;;
21661;SDS011;10992;48.170;8.596;2022-11-18T15:16:38;12.23;;;6.32;;
21661;SDS011;10992;48.170;8.596;2022-11-18T15:19:05;7.55;;;6.60;;
21661;SDS011;10992;48.170;8.596;2022-11-18T15:21:37;8.80;;;7.70;;
21661;SDS011;10992;48.170;8.596;2022-11-18T15:24:05;6.57;;;4.80;;
21661;SDS011;10992;48.170;8.596;2022-11-18T15:26:36;3.25;;;2.00;;
21661;SDS011;10992;48.170;8.596;2022-11-18T15:29:13;5.10;;;3.38;;
21661;SDS011;10992;48.170;8.596;2022-11-18T15:31:45;5.43;;;4.25;;
21661;SDS011;10992;48.170;8.596;2022-11-18T15:34:12;6.28;;;4.30;;
21661;SDS011;10992;48.170;8.596;2022-11-18T15:36:40;6.22;;;4.10;;
21661;SDS011;10992;48.170;8.596;2022-11-18T15:39:07;4.68;;;3.53;;
21661;SDS011;10992;48.170;8.596;2022-11-18T15:41:36;8.48;;;3.70;;
21661;SDS011;10992;48.170;8.596;2022-11-18T15:44:04;6.88;;;5.18;;
21661;SDS011;10992;48.170;8.596;2022-11-18T15:46:31;8.57;;;7.10;;
21661;SDS011;10992;48.170;8.596;2022-11-18T15:49:01;9.18;;;7.93;;
21661;SDS011;10992;48.170;8.596;2022-11-18T15:51:28;8.35;;;7.03;;
21661;SDS011;10992;48.170;8.596;2022-11-18T15:53:55;10.23;;;7.63;;
21661;SDS011;10992;48.170;8.596;2022-11-18T15:56:25;8.88;;;6.53;;
21661;SDS011;10992;48.170;8.596;2022-11-18T15:58:53;6.70;;;4.00;;
21661;SDS011;10992;48.170;8.596;2022-11-18T16:01:26;5.75;;;4.43;;
21661;SDS011;10992;48.170;8.596;2022-11-18T16:03:55;4.40;;;3.63;;
21661;SDS011;10992;48.170;8.596;2022-11-18T16:06:22;3.60;;;3.03;;
21661;SDS011;10992;48.170;8.596;2022-11-18T16:08:50;5.10;;;2.78;;
21661;SDS011;10992;48.170;8.596;2022-11-18T16:11:24;4.43;;;3.20;;
21661;SDS011;10992;48.170;8.596;2022-11-18T16:14:10;4.32;;;3.13;;
21661;SDS011;10992;48.170;8.596;2022-11-18T16:16:39;5.68;;;4.40;;
21661;SDS011;10992;48.170;8.596;2022-11-18T16:19:07;6.32;;;4.82;;
21661;SDS011;10992;48.170;8.596;2022-11-18T16:21:37;4.20;;;3.28;;
21661;SDS011;10992;48.170;8.596;2022-11-18T16:24:06;4.72;;;4.25;;
21661;SDS011;10992;48.170;8.596;2022-11-18T16:26:35;3.58;;;2.10;;
21661;SDS011;10992;48.170;8.596;2022-11-18T16:29:03;2.17;;;1.27;;
21661;SDS011;10992;48.170;8.596;2022-11-18T16:31:31;3.03;;;1.98;;
21661;SDS011;10992;48.170;8.596;2022-11-18T16:36:49;1.88;;;0.95;;
21661;SDS011;10992;48.170;8.596;2022-11-18T16:39:20;2.65;;;1.77;;
21661;SDS011;10992;48.170;8.596;2022-11-18T16:41:50;2.20;;;1.20;;
21661;SDS011;10992;48.170;8.596;2022-11-18T16:44:18;3.53;;;2.42;;
21661;SDS011;10992;48.170;8.596;2022-11-18T16:46:46;5.75;;;5.18;;
21661;SDS011;10992;48.170;8.596;2022-11-18T16:49:15;6.57;;;5.97;;
21661;SDS011;10992;48.170;8.596;2022-11-18T16:51:44;17.65;;;15.77;;
21661;SDS011;10992;48.170;8.596;2022-11-18T16:54:16;14.32;;;12.57;;
21661;SDS011;10992;48.170;8.596;2022-11-18T16:56:48;12.20;;;10.00;;
21661;SDS011;10992;48.170;8.596;2022-11-18T16:59:16;9.57;;;7.85;;
21661;SDS011;10992;48.170;8.596;2022-11-18T17:01:47;7.35;;;6.57;;
21661;SDS011;10992;48.170;8.596;2022-11-18T17:04:18;5.93;;;5.32;;
21661;SDS011;10992;48.170;8.596;2022-11-18T17:06:46;3.85;;;3.30;;
21661;SDS011;10992;48.170;8.596;2022-11-18T17:09:14;4.60;;;3.60;;
21661;SDS011;10992;48.170;8.596;2022-11-18T17:11:43;3.47;;;2.80;;
21661;SDS011;10992;48.170;8.596;2022-11-18T17:14:10;4.55;;;3.78;;
21661;SDS011;10992;48.170;8.596;2022-11-18T17:16:37;3.97;;;3.63;;
21661;SDS011;10992;48.170;8.596;2022-11-18T17:19:04;4.18;;;3.70;;
21661;SDS011;10992;48.170;8.596;2022-11-18T17:21:37;5.85;;;5.28;;
21661;SDS011;10992;48.170;8.596;2022-11-18T17:24:04;11.52;;;10.55;;
21661;SDS011;10992;48.170;8.596;2022-11-18T17:26:31;7.68;;;6.97;;